sensor_id;sensor_type;location;lat;lon;timestamp;P1;durP1;ratioP1;P2;durP2;ratioP2
32080;SDS011;18593;51.426;7.030;2023-07-31T00:00:53;12.88;;;4.75;;
32080;SDS011;18593;51.426;7.030;2023-07-31T00:03:20;13.02;;;4.13;;
32080;SDS011;18593;51.426;7.030;2023-07-31T00:05:47;11.55;;;4.57;;
32080;SDS011;18593;51.426;7.030;2023-07-31T00:08:15;13.45;;;4.15;;
32080;SDS011;18593;51.426;7.030;2023-07-31T00:10:42;12.32;;;4.70;;
32080;SDS011;18593;51.426;7.030;2023-07-31T00:13:10;13.07;;;4.75;;
32080;SDS011;18593;51.426;7.030;2023-07-31T00:15:38;15.15;;;4.97;;
32080;SDS011;18593;51.426;7.030;2023-07-31T00:18:06;12.02;;;4.78;;
32080;SDS011;18593;51.426;7.030;2023-07-31T00:20:33;15.32;;;4.40;;
32080;SDS011;18593;51.426;7.030;2023-07-31T00:23:00;12.63;;;4.03;;
32080;SDS011;18593;51.426;7.030;2023-07-31T00:25:27;12.27;;;4.65;;
32080;SDS011;18593;51.426;7.030;2023-07-31T00:27:55;13.73;;;4.90;;
32080;SDS011;18593;51.426;7.030;2023-07-31T00:30:22;14.68;;;5.00;;
32080;SDS011;18593;51.426;7.030;2023-07-31T00:32:51;12.68;;;5.03;;
32080;SDS011;18593;51.426;7.030;2023-07-31T00:35:19;15.80;;;5.18;;
32080;SDS011;18593;51.426;7.030;2023-07-31T00:37:46;13.52;;;5.13;;
32080;SDS011;18593;51.426;7.030;2023-07-31T00:40:13;18.02;;;5.53;;
32080;SDS011;18593;51.426;7.030;2023-07-31T00:42:41;11.80;;;5.00;;
32080;SDS011;18593;51.426;7.030;2023-07-31T00:45:09;15.98;;;5.80;;
32080;SDS011;18593;51.426;7.030;2023-07-31T00:47:36;14.13;;;5.03;;
32080;SDS011;18593;51.426;7.030;2023-07-31T00:50:05;13.60;;;4.75;;
32080;SDS011;18593;51.426;7.030;2023-07-31T00:52:35;17.52;;;5.35;;
32080;SDS011;18593;51.426;7.030;2023-07-31T00:55:03;14.05;;;4.90;;
32080;SDS011;18593;51.426;7.030;2023-07-31T00:57:31;12.23;;;5.18;;
32080;SDS011;18593;51.426;7.030;2023-07-31T00:59:59;12.15;;;4.90;;
32080;SDS011;18593;51.426;7.030;2023-07-31T01:02:28;13.55;;;5.18;;
32080;SDS011;18593;51.426;7.030;2023-07-31T01:04:55;12.85;;;5.00;;
32080;SDS011;18593;51.426;7.030;2023-07-31T01:07:26;15.52;;;5.10;;
32080;SDS011;18593;51.426;7.030;2023-07-31T01:10:03;16.27;;;4.95;;
32080;SDS011;18593;51.426;7.030;2023-07-31T01:12:37;16.30;;;5.00;;
32080;SDS011;18593;51.426;7.030;2023-07-31T01:15:07;17.75;;;4.85;;
32080;SDS011;18593;51.426;7.030;2023-07-31T01:17:36;14.88;;;4.93;;
32080;SDS011;18593;51.426;7.030;2023-07-31T01:20:05;15.52;;;4.78;;
32080;SDS011;18593;51.426;7.030;2023-07-31T01:22:43;13.10;;;5.40;;
32080;SDS011;18593;51.426;7.030;2023-07-31T01:28:39;16.45;;;4.68;;
32080;SDS011;18593;51.426;7.030;2023-07-31T01:31:23;17.42;;;4.78;;
32080;SDS011;18593;51.426;7.030;2023-07-31T01:33:53;16.05;;;5.10;;
32080;SDS011;18593;51.426;7.030;2023-07-31T01:36:24;13.60;;;5.03;;
32080;SDS011;18593;51.426;7.030;2023-07-31T01:38:52;14.52;;;5.15;;
32080;SDS011;18593;51.426;7.030;2023-07-31T01:41:25;14.35;;;5.40;;
32080;SDS011;18593;51.426;7.030;2023-07-31T01:43:52;13.68;;;4.75;;
32080;SDS011;18593;51.426;7.030;2023-07-31T01:46:20;13.82;;;5.20;;
32080;SDS011;18593;51.426;7.030;2023-07-31T01:48:47;14.32;;;4.30;;
32080;SDS011;18593;51.426;7.030;2023-07-31T01:51:14;14.23;;;5.10;;
32080;SDS011;18593;51.426;7.030;2023-07-31T01:53:41;14.40;;;4.57;;
32080;SDS011;18593;51.426;7.030;2023-07-31T01:56:09;14.50;;;4.75;;
32080;SDS011;18593;51.426;7.030;2023-07-31T01:58:38;13.85;;;4.20;;
32080;SDS011;18593;51.426;7.030;2023-07-31T02:01:05;14.15;;;5.30;;
32080;SDS011;18593;51.426;7.030;2023-07-31T02:03:33;15.30;;;4.68;;
32080;SDS011;18593;51.426;7.030;2023-07-31T02:06:00;14.43;;;4.57;;
32080;SDS011;18593;51.426;7.030;2023-07-31T02:08:28;16.23;;;5.47;;
32080;SDS011;18593;51.426;7.030;2023-07-31T02:10:55;11.25;;;4.53;;
32080;SDS011;18593;51.426;7.030;2023-07-31T02:13:22;19.20;;;5.25;;
32080;SDS011;18593;51.426;7.030;2023-07-31T02:15:52;15.18;;;4.60;;
32080;SDS011;18593;51.426;7.030;2023-07-31T02:18:19;14.85;;;5.07;;
32080;SDS011;18593;51.426;7.030;2023-07-31T02:20:48;15.73;;;5.05;;
32080;SDS011;18593;51.426;7.030;2023-07-31T02:23:17;10.57;;;4.40;;
32080;SDS011;18593;51.426;7.030;2023-07-31T02:25:44;18.42;;;5.43;;
32080;SDS011;18593;51.426;7.030;2023-07-31T02:28:13;17.65;;;5.03;;
32080;SDS011;18593;51.426;7.030;2023-07-31T02:30:42;20.88;;;4.82;;
32080;SDS011;18593;51.426;7.030;2023-07-31T02:35:41;18.70;;;5.40;;
32080;SDS011;18593;51.426;7.030;2023-07-31T02:38:08;16.08;;;5.70;;
32080;SDS011;18593;51.426;7.030;2023-07-31T02:40:36;17.30;;;5.50;;
32080;SDS011;18593;51.426;7.030;2023-07-31T02:43:03;14.07;;;4.95;;
32080;SDS011;18593;51.426;7.030;2023-07-31T02:45:30;13.52;;;5.03;;
32080;SDS011;18593;51.426;7.030;2023-07-31T02:47:57;14.40;;;4.78;;
32080;SDS011;18593;51.426;7.030;2023-07-31T02:50:26;11.85;;;4.75;;
32080;SDS011;18593;51.426;7.030;2023-07-31T02:52:54;19.08;;;5.30;;
32080;SDS011;18593;51.426;7.030;2023-07-31T02:55:21;17.90;;;5.25;;
32080;SDS011;18593;51.426;7.030;2023-07-31T02:57:48;15.82;;;4.93;;
32080;SDS011;18593;51.426;7.030;2023-07-31T03:00:17;15.55;;;5.03;;
32080;SDS011;18593;51.426;7.030;2023-07-31T03:02:45;15.85;;;5.03;;
32080;SDS011;18593;51.426;7.030;2023-07-31T03:05:13;17.13;;;5.60;;
32080;SDS011;18593;51.426;7.030;2023-07-31T03:07:42;17.45;;;5.30;;
32080;SDS011;18593;51.426;7.030;2023-07-31T03:10:10;14.98;;;5.18;;
32080;SDS011;18593;51.426;7.030;2023-07-31T03:12:37;15.15;;;5.05;;
32080;SDS011;18593;51.426;7.030;2023-07-31T03:15:05;14.40;;;5.22;;
32080;SDS011;18593;51.426;7.030;2023-07-31T03:17:34;15.70;;;4.72;;
32080;SDS011;18593;51.426;7.030;2023-07-31T03:20:01;16.00;;;5.28;;
32080;SDS011;18593;51.426;7.030;2023-07-31T03:22:30;14.60;;;5.15;;
32080;SDS011;18593;51.426;7.030;2023-07-31T03:24:59;19.67;;;5.88;;
32080;SDS011;18593;51.426;7.030;2023-07-31T03:27:26;18.67;;;5.53;;
32080;SDS011;18593;51.426;7.030;2023-07-31T03:29:53;16.02;;;5.13;;
32080;SDS011;18593;51.426;7.030;2023-07-31T03:32:20;15.48;;;5.03;;
32080;SDS011;18593;51.426;7.030;2023-07-31T03:34:49;13.95;;;5.13;;
32080;SDS011;18593;51.426;7.030;2023-07-31T03:37:16;18.35;;;5.65;;
32080;SDS011;18593;51.426;7.030;2023-07-31T03:39:43;17.88;;;5.70;;
32080;SDS011;18593;51.426;7.030;2023-07-31T03:42:12;12.52;;;4.82;;
32080;SDS011;18593;51.426;7.030;2023-07-31T03:44:39;17.52;;;5.85;;
32080;SDS011;18593;51.426;7.030;2023-07-31T03:47:08;14.30;;;4.93;;
32080;SDS011;18593;51.426;7.030;2023-07-31T03:49:36;15.23;;;5.65;;
32080;SDS011;18593;51.426;7.030;2023-07-31T03:52:04;15.52;;;5.18;;
32080;SDS011;18593;51.426;7.030;2023-07-31T03:54:32;14.57;;;5.28;;
32080;SDS011;18593;51.426;7.030;2023-07-31T03:56:59;12.75;;;4.97;;
32080;SDS011;18593;51.426;7.030;2023-07-31T03:59:28;17.55;;;6.03;;
32080;SDS011;18593;51.426;7.030;2023-07-31T04:01:55;15.85;;;5.75;;
32080;SDS011;18593;51.426;7.030;2023-07-31T04:04:22;17.65;;;5.32;;
32080;SDS011;18593;51.426;7.030;2023-07-31T04:06:49;14.40;;;5.68;;
32080;SDS011;18593;51.426;7.030;2023-07-31T04:09:17;16.38;;;4.97;;
32080;SDS011;18593;51.426;7.030;2023-07-31T04:11:44;15.98;;;5.40;;
32080;SDS011;18593;51.426;7.030;2023-07-31T04:14:12;14.35;;;5.03;;
32080;SDS011;18593;51.426;7.030;2023-07-31T04:16:40;14.90;;;5.65;;
32080;SDS011;18593;51.426;7.030;2023-07-31T04:19:07;14.52;;;5.18;;
32080;SDS011;18593;51.426;7.030;2023-07-31T04:21:35;15.48;;;6.05;;
32080;SDS011;18593;51.426;7.030;2023-07-31T04:24:03;18.25;;;5.55;;
32080;SDS011;18593;51.426;7.030;2023-07-31T04:26:30;11.43;;;5.18;;
32080;SDS011;18593;51.426;7.030;2023-07-31T04:28:58;12.27;;;5.25;;
32080;SDS011;18593;51.426;7.030;2023-07-31T04:31:25;10.98;;;4.65;;
32080;SDS011;18593;51.426;7.030;2023-07-31T04:33:54;16.02;;;4.93;;
32080;SDS011;18593;51.426;7.030;2023-07-31T04:36:21;14.25;;;5.20;;
32080;SDS011;18593;51.426;7.030;2023-07-31T04:38:48;15.55;;;5.10;;
32080;SDS011;18593;51.426;7.030;2023-07-31T04:41:15;16.42;;;5.05;;
32080;SDS011;18593;51.426;7.030;2023-07-31T04:43:43;18.30;;;5.60;;
32080;SDS011;18593;51.426;7.030;2023-07-31T04:46:10;13.07;;;4.85;;
32080;SDS011;18593;51.426;7.030;2023-07-31T04:48:37;11.52;;;5.25;;
32080;SDS011;18593;51.426;7.030;2023-07-31T04:51:06;14.60;;;5.10;;
32080;SDS011;18593;51.426;7.030;2023-07-31T04:53:34;12.45;;;4.88;;
32080;SDS011;18593;51.426;7.030;2023-07-31T04:56:01;15.13;;;5.47;;
32080;SDS011;18593;51.426;7.030;2023-07-31T04:58:29;15.70;;;5.22;;
32080;SDS011;18593;51.426;7.030;2023-07-31T05:00:56;17.35;;;5.40;;
32080;SDS011;18593;51.426;7.030;2023-07-31T05:03:23;10.25;;;5.10;;
32080;SDS011;18593;51.426;7.030;2023-07-31T05:05:51;14.13;;;5.60;;
32080;SDS011;18593;51.426;7.030;2023-07-31T05:08:19;12.40;;;5.78;;
32080;SDS011;18593;51.426;7.030;2023-07-31T05:10:47;12.20;;;5.30;;
32080;SDS011;18593;51.426;7.030;2023-07-31T05:13:14;14.70;;;5.55;;
32080;SDS011;18593;51.426;7.030;2023-07-31T05:15:41;16.55;;;5.78;;
32080;SDS011;18593;51.426;7.030;2023-07-31T05:18:09;17.67;;;6.07;;
32080;SDS011;18593;51.426;7.030;2023-07-31T05:20:36;11.25;;;4.72;;
32080;SDS011;18593;51.426;7.030;2023-07-31T05:23:03;13.10;;;5.72;;
32080;SDS011;18593;51.426;7.030;2023-07-31T05:25:32;16.10;;;5.63;;
32080;SDS011;18593;51.426;7.030;2023-07-31T05:27:59;13.70;;;5.80;;
32080;SDS011;18593;51.426;7.030;2023-07-31T05:30:26;18.80;;;6.43;;
32080;SDS011;18593;51.426;7.030;2023-07-31T05:32:56;14.25;;;5.50;;
32080;SDS011;18593;51.426;7.030;2023-07-31T05:35:23;17.42;;;5.47;;
32080;SDS011;18593;51.426;7.030;2023-07-31T05:37:50;15.73;;;5.90;;
32080;SDS011;18593;51.426;7.030;2023-07-31T05:40:18;12.50;;;5.63;;
32080;SDS011;18593;51.426;7.030;2023-07-31T05:42:46;16.58;;;6.18;;
32080;SDS011;18593;51.426;7.030;2023-07-31T05:45:14;17.40;;;6.05;;
32080;SDS011;18593;51.426;7.030;2023-07-31T05:47:41;16.50;;;6.07;;
32080;SDS011;18593;51.426;7.030;2023-07-31T05:50:09;16.25;;;5.82;;
32080;SDS011;18593;51.426;7.030;2023-07-31T05:52:36;16.33;;;6.15;;
32080;SDS011;18593;51.426;7.030;2023-07-31T05:55:04;13.98;;;5.88;;
32080;SDS011;18593;51.426;7.030;2023-07-31T05:57:33;14.13;;;5.35;;
32080;SDS011;18593;51.426;7.030;2023-07-31T06:00:03;13.10;;;6.45;;
32080;SDS011;18593;51.426;7.030;2023-07-31T06:02:32;18.05;;;6.43;;
32080;SDS011;18593;51.426;7.030;2023-07-31T06:05:02;21.13;;;5.93;;
32080;SDS011;18593;51.426;7.030;2023-07-31T06:07:31;13.55;;;5.72;;
32080;SDS011;18593;51.426;7.030;2023-07-31T06:09:58;18.40;;;6.22;;
32080;SDS011;18593;51.426;7.030;2023-07-31T06:12:29;15.20;;;6.10;;
32080;SDS011;18593;51.426;7.030;2023-07-31T06:14:57;18.25;;;5.68;;
32080;SDS011;18593;51.426;7.030;2023-07-31T06:17:26;12.43;;;5.38;;
32080;SDS011;18593;51.426;7.030;2023-07-31T06:19:53;15.60;;;5.80;;
32080;SDS011;18593;51.426;7.030;2023-07-31T06:22:20;14.95;;;6.47;;
32080;SDS011;18593;51.426;7.030;2023-07-31T06:24:48;14.65;;;6.00;;
32080;SDS011;18593;51.426;7.030;2023-07-31T06:27:15;14.02;;;5.93;;
32080;SDS011;18593;51.426;7.030;2023-07-31T06:29:43;16.33;;;6.60;;
32080;SDS011;18593;51.426;7.030;2023-07-31T06:32:10;12.85;;;5.95;;
32080;SDS011;18593;51.426;7.030;2023-07-31T06:34:38;15.98;;;6.25;;
32080;SDS011;18593;51.426;7.030;2023-07-31T06:37:06;15.55;;;6.10;;
32080;SDS011;18593;51.426;7.030;2023-07-31T06:39:33;17.33;;;6.30;;
32080;SDS011;18593;51.426;7.030;2023-07-31T06:42:01;9.60;;;5.15;;
32080;SDS011;18593;51.426;7.030;2023-07-31T06:44:29;16.45;;;6.35;;
32080;SDS011;18593;51.426;7.030;2023-07-31T06:46:56;14.35;;;6.47;;
32080;SDS011;18593;51.426;7.030;2023-07-31T06:49:24;13.77;;;5.88;;
32080;SDS011;18593;51.426;7.030;2023-07-31T06:51:52;11.85;;;5.88;;
32080;SDS011;18593;51.426;7.030;2023-07-31T06:54:20;26.80;;;5.68;;
32080;SDS011;18593;51.426;7.030;2023-07-31T06:56:48;14.60;;;6.43;;
32080;SDS011;18593;51.426;7.030;2023-07-31T06:59:15;13.95;;;5.93;;
32080;SDS011;18593;51.426;7.030;2023-07-31T07:01:46;13.10;;;5.15;;
32080;SDS011;18593;51.426;7.030;2023-07-31T07:04:15;13.85;;;5.85;;
32080;SDS011;18593;51.426;7.030;2023-07-31T07:06:45;11.32;;;5.97;;
32080;SDS011;18593;51.426;7.030;2023-07-31T07:09:14;15.25;;;5.70;;
32080;SDS011;18593;51.426;7.030;2023-07-31T07:11:41;11.43;;;5.15;;
32080;SDS011;18593;51.426;7.030;2023-07-31T07:14:09;16.40;;;6.43;;
32080;SDS011;18593;51.426;7.030;2023-07-31T07:16:36;11.82;;;5.15;;
32080;SDS011;18593;51.426;7.030;2023-07-31T07:19:06;10.90;;;5.05;;
32080;SDS011;18593;51.426;7.030;2023-07-31T07:21:33;13.68;;;5.35;;
32080;SDS011;18593;51.426;7.030;2023-07-31T07:24:01;16.05;;;6.20;;
32080;SDS011;18593;51.426;7.030;2023-07-31T07:26:29;10.77;;;5.50;;
32080;SDS011;18593;51.426;7.030;2023-07-31T07:28:57;13.73;;;5.18;;
32080;SDS011;18593;51.426;7.030;2023-07-31T07:31:27;10.73;;;5.32;;
32080;SDS011;18593;51.426;7.030;2023-07-31T07:33:54;9.80;;;5.30;;
32080;SDS011;18593;51.426;7.030;2023-07-31T07:36:22;12.90;;;5.85;;
32080;SDS011;18593;51.426;7.030;2023-07-31T07:38:49;12.60;;;6.07;;
32080;SDS011;18593;51.426;7.030;2023-07-31T07:41:17;9.18;;;5.25;;
32080;SDS011;18593;51.426;7.030;2023-07-31T07:43:46;11.27;;;5.05;;
32080;SDS011;18593;51.426;7.030;2023-07-31T07:46:28;11.20;;;5.32;;
32080;SDS011;18593;51.426;7.030;2023-07-31T07:48:55;15.82;;;6.28;;
32080;SDS011;18593;51.426;7.030;2023-07-31T07:51:22;9.35;;;4.90;;
32080;SDS011;18593;51.426;7.030;2023-07-31T07:53:50;11.73;;;5.05;;
32080;SDS011;18593;51.426;7.030;2023-07-31T07:56:17;11.60;;;5.40;;
32080;SDS011;18593;51.426;7.030;2023-07-31T07:58:44;8.35;;;4.57;;
32080;SDS011;18593;51.426;7.030;2023-07-31T08:01:14;13.35;;;5.30;;
32080;SDS011;18593;51.426;7.030;2023-07-31T08:03:42;12.10;;;5.13;;
32080;SDS011;18593;51.426;7.030;2023-07-31T08:06:09;9.55;;;5.00;;
32080;SDS011;18593;51.426;7.030;2023-07-31T08:08:36;13.90;;;4.90;;
32080;SDS011;18593;51.426;7.030;2023-07-31T08:11:04;11.57;;;4.60;;
32080;SDS011;18593;51.426;7.030;2023-07-31T08:13:32;11.20;;;5.32;;
32080;SDS011;18593;51.426;7.030;2023-07-31T08:16:00;13.23;;;4.95;;
32080;SDS011;18593;51.426;7.030;2023-07-31T08:18:28;10.23;;;4.40;;
32080;SDS011;18593;51.426;7.030;2023-07-31T08:20:55;12.07;;;4.47;;
32080;SDS011;18593;51.426;7.030;2023-07-31T08:23:22;12.85;;;4.75;;
32080;SDS011;18593;51.426;7.030;2023-07-31T08:25:50;9.20;;;4.07;;
32080;SDS011;18593;51.426;7.030;2023-07-31T08:28:17;10.40;;;4.25;;
32080;SDS011;18593;51.426;7.030;2023-07-31T08:30:45;8.80;;;4.28;;
32080;SDS011;18593;51.426;7.030;2023-07-31T08:33:13;9.13;;;3.72;;
32080;SDS011;18593;51.426;7.030;2023-07-31T08:35:42;8.75;;;3.95;;
32080;SDS011;18593;51.426;7.030;2023-07-31T08:38:09;7.15;;;3.78;;
32080;SDS011;18593;51.426;7.030;2023-07-31T08:40:36;11.68;;;4.05;;
32080;SDS011;18593;51.426;7.030;2023-07-31T08:43:04;7.78;;;3.80;;
32080;SDS011;18593;51.426;7.030;2023-07-31T08:45:32;11.32;;;4.38;;
32080;SDS011;18593;51.426;7.030;2023-07-31T08:48:09;10.73;;;4.22;;
32080;SDS011;18593;51.426;7.030;2023-07-31T08:50:50;8.57;;;4.07;;
32080;SDS011;18593;51.426;7.030;2023-07-31T08:53:19;10.10;;;3.70;;
32080;SDS011;18593;51.426;7.030;2023-07-31T08:55:47;9.10;;;4.13;;
32080;SDS011;18593;51.426;7.030;2023-07-31T08:58:15;8.13;;;3.88;;
32080;SDS011;18593;51.426;7.030;2023-07-31T09:00:45;11.00;;;4.30;;
32080;SDS011;18593;51.426;7.030;2023-07-31T09:03:16;8.10;;;3.58;;
32080;SDS011;18593;51.426;7.030;2023-07-31T09:08:13;9.57;;;3.65;;
32080;SDS011;18593;51.426;7.030;2023-07-31T09:10:48;7.63;;;3.30;;
32080;SDS011;18593;51.426;7.030;2023-07-31T09:13:16;8.77;;;3.70;;
32080;SDS011;18593;51.426;7.030;2023-07-31T09:15:44;8.25;;;4.22;;
32080;SDS011;18593;51.426;7.030;2023-07-31T09:18:12;9.15;;;3.60;;
32080;SDS011;18593;51.426;7.030;2023-07-31T09:20:45;8.63;;;3.75;;
32080;SDS011;18593;51.426;7.030;2023-07-31T09:23:26;6.15;;;3.03;;
32080;SDS011;18593;51.426;7.030;2023-07-31T09:26:09;7.65;;;3.17;;
32080;SDS011;18593;51.426;7.030;2023-07-31T09:29:09;10.55;;;3.40;;
32080;SDS011;18593;51.426;7.030;2023-07-31T09:32:24;8.30;;;3.42;;
32080;SDS011;18593;51.426;7.030;2023-07-31T09:35:15;6.55;;;3.30;;
32080;SDS011;18593;51.426;7.030;2023-07-31T09:37:48;7.10;;;3.20;;
32080;SDS011;18593;51.426;7.030;2023-07-31T09:40:26;5.75;;;3.30;;
32080;SDS011;18593;51.426;7.030;2023-07-31T09:42:56;6.55;;;3.38;;
32080;SDS011;18593;51.426;7.030;2023-07-31T09:45:25;5.35;;;2.97;;
32080;SDS011;18593;51.426;7.030;2023-07-31T09:47:53;7.25;;;2.90;;
32080;SDS011;18593;51.426;7.030;2023-07-31T09:50:23;6.72;;;3.13;;
32080;SDS011;18593;51.426;7.030;2023-07-31T09:52:51;8.07;;;3.37;;
32080;SDS011;18593;51.426;7.030;2023-07-31T09:55:19;7.40;;;3.10;;
32080;SDS011;18593;51.426;7.030;2023-07-31T09:57:47;5.40;;;2.80;;
32080;SDS011;18593;51.426;7.030;2023-07-31T10:00:16;5.20;;;2.83;;
32080;SDS011;18593;51.426;7.030;2023-07-31T10:02:47;7.05;;;3.20;;
32080;SDS011;18593;51.426;7.030;2023-07-31T10:05:15;5.88;;;3.00;;
32080;SDS011;18593;51.426;7.030;2023-07-31T10:07:45;5.28;;;2.75;;
32080;SDS011;18593;51.426;7.030;2023-07-31T10:10:17;8.10;;;2.80;;
32080;SDS011;18593;51.426;7.030;2023-07-31T10:12:47;5.53;;;2.78;;
32080;SDS011;18593;51.426;7.030;2023-07-31T10:15:16;6.55;;;2.83;;
32080;SDS011;18593;51.426;7.030;2023-07-31T10:17:43;4.68;;;2.60;;
32080;SDS011;18593;51.426;7.030;2023-07-31T10:20:12;6.00;;;2.75;;
32080;SDS011;18593;51.426;7.030;2023-07-31T10:22:41;6.28;;;2.80;;
32080;SDS011;18593;51.426;7.030;2023-07-31T10:25:11;4.40;;;2.20;;
32080;SDS011;18593;51.426;7.030;2023-07-31T10:27:39;6.97;;;2.83;;
32080;SDS011;18593;51.426;7.030;2023-07-31T10:30:07;6.35;;;2.72;;
32080;SDS011;18593;51.426;7.030;2023-07-31T10:32:38;7.35;;;2.80;;
32080;SDS011;18593;51.426;7.030;2023-07-31T10:35:09;5.93;;;2.83;;
32080;SDS011;18593;51.426;7.030;2023-07-31T10:37:38;6.25;;;3.05;;
32080;SDS011;18593;51.426;7.030;2023-07-31T10:40:11;5.78;;;3.33;;
32080;SDS011;18593;51.426;7.030;2023-07-31T10:42:45;8.60;;;3.90;;
32080;SDS011;18593;51.426;7.030;2023-07-31T10:45:23;6.53;;;3.63;;
32080;SDS011;18593;51.426;7.030;2023-07-31T10:48:00;6.55;;;3.55;;
32080;SDS011;18593;51.426;7.030;2023-07-31T10:50:29;8.32;;;4.15;;
32080;SDS011;18593;51.426;7.030;2023-07-31T10:52:59;7.75;;;3.42;;
32080;SDS011;18593;51.426;7.030;2023-07-31T10:55:30;7.15;;;3.83;;
32080;SDS011;18593;51.426;7.030;2023-07-31T10:58:05;8.75;;;4.25;;
32080;SDS011;18593;51.426;7.030;2023-07-31T11:00:33;9.80;;;4.22;;
32080;SDS011;18593;51.426;7.030;2023-07-31T11:03:03;6.70;;;4.07;;
32080;SDS011;18593;51.426;7.030;2023-07-31T11:05:44;9.80;;;4.68;;
32080;SDS011;18593;51.426;7.030;2023-07-31T11:08:19;9.07;;;4.68;;
32080;SDS011;18593;51.426;7.030;2023-07-31T11:10:50;9.23;;;4.70;;
32080;SDS011;18593;51.426;7.030;2023-07-31T11:13:31;8.40;;;4.55;;
32080;SDS011;18593;51.426;7.030;2023-07-31T11:16:05;9.30;;;4.55;;
32080;SDS011;18593;51.426;7.030;2023-07-31T11:18:33;7.53;;;4.53;;
32080;SDS011;18593;51.426;7.030;2023-07-31T11:21:00;10.55;;;4.80;;
32080;SDS011;18593;51.426;7.030;2023-07-31T11:23:27;10.75;;;4.47;;
32080;SDS011;18593;51.426;7.030;2023-07-31T11:25:57;9.25;;;4.93;;
32080;SDS011;18593;51.426;7.030;2023-07-31T11:28:31;11.50;;;4.85;;
32080;SDS011;18593;51.426;7.030;2023-07-31T11:31:00;8.90;;;4.43;;
32080;SDS011;18593;51.426;7.030;2023-07-31T11:33:28;9.68;;;4.45;;
32080;SDS011;18593;51.426;7.030;2023-07-31T11:35:55;11.15;;;4.47;;
32080;SDS011;18593;51.426;7.030;2023-07-31T11:38:22;10.25;;;4.45;;
32080;SDS011;18593;51.426;7.030;2023-07-31T11:40:51;9.68;;;4.38;;
32080;SDS011;18593;51.426;7.030;2023-07-31T11:43:21;14.57;;;4.28;;
32080;SDS011;18593;51.426;7.030;2023-07-31T11:45:49;12.00;;;4.63;;
32080;SDS011;18593;51.426;7.030;2023-07-31T11:48:19;10.43;;;4.68;;
32080;SDS011;18593;51.426;7.030;2023-07-31T11:50:49;8.43;;;4.60;;
32080;SDS011;18593;51.426;7.030;2023-07-31T11:53:18;8.63;;;4.05;;
32080;SDS011;18593;51.426;7.030;2023-07-31T11:55:55;9.88;;;4.57;;
32080;SDS011;18593;51.426;7.030;2023-07-31T11:58:26;11.27;;;4.30;;
32080;SDS011;18593;51.426;7.030;2023-07-31T12:00:55;9.00;;;4.43;;
32080;SDS011;18593;51.426;7.030;2023-07-31T12:03:24;9.43;;;3.78;;
32080;SDS011;18593;51.426;7.030;2023-07-31T12:05:52;8.63;;;3.83;;
32080;SDS011;18593;51.426;7.030;2023-07-31T12:08:21;11.13;;;4.78;;
32080;SDS011;18593;51.426;7.030;2023-07-31T12:10:50;9.07;;;3.88;;
32080;SDS011;18593;51.426;7.030;2023-07-31T12:13:20;13.10;;;4.05;;
32080;SDS011;18593;51.426;7.030;2023-07-31T12:18:22;7.00;;;3.63;;
32080;SDS011;18593;51.426;7.030;2023-07-31T12:20:53;6.72;;;3.55;;
32080;SDS011;18593;51.426;7.030;2023-07-31T12:23:23;6.85;;;3.13;;
32080;SDS011;18593;51.426;7.030;2023-07-31T12:28:27;7.88;;;3.70;;
32080;SDS011;18593;51.426;7.030;2023-07-31T12:30:58;5.53;;;3.15;;
32080;SDS011;18593;51.426;7.030;2023-07-31T12:33:30;6.80;;;3.30;;
32080;SDS011;18593;51.426;7.030;2023-07-31T12:36:00;6.05;;;3.58;;
32080;SDS011;18593;51.426;7.030;2023-07-31T12:38:29;7.73;;;3.10;;
32080;SDS011;18593;51.426;7.030;2023-07-31T12:40:57;6.13;;;3.53;;
32080;SDS011;18593;51.426;7.030;2023-07-31T12:43:24;5.82;;;3.20;;
32080;SDS011;18593;51.426;7.030;2023-07-31T12:45:53;8.57;;;3.45;;
32080;SDS011;18593;51.426;7.030;2023-07-31T12:48:23;8.23;;;3.50;;
32080;SDS011;18593;51.426;7.030;2023-07-31T12:50:50;5.47;;;3.40;;
32080;SDS011;18593;51.426;7.030;2023-07-31T12:53:17;6.28;;;2.90;;
32080;SDS011;18593;51.426;7.030;2023-07-31T12:55:45;5.88;;;3.10;;
32080;SDS011;18593;51.426;7.030;2023-07-31T12:58:12;6.65;;;3.10;;
32080;SDS011;18593;51.426;7.030;2023-07-31T13:00:43;9.60;;;3.75;;
32080;SDS011;18593;51.426;7.030;2023-07-31T13:03:11;7.68;;;3.13;;
32080;SDS011;18593;51.426;7.030;2023-07-31T13:05:43;7.30;;;3.00;;
32080;SDS011;18593;51.426;7.030;2023-07-31T13:08:11;6.32;;;2.92;;
32080;SDS011;18593;51.426;7.030;2023-07-31T13:10:44;6.60;;;3.33;;
32080;SDS011;18593;51.426;7.030;2023-07-31T13:13:15;6.38;;;2.78;;
32080;SDS011;18593;51.426;7.030;2023-07-31T13:15:43;4.97;;;3.08;;
32080;SDS011;18593;51.426;7.030;2023-07-31T13:18:11;5.53;;;3.00;;
32080;SDS011;18593;51.426;7.030;2023-07-31T13:20:38;5.72;;;3.13;;
32080;SDS011;18593;51.426;7.030;2023-07-31T13:23:06;9.95;;;3.65;;
32080;SDS011;18593;51.426;7.030;2023-07-31T13:25:34;5.28;;;3.40;;
32080;SDS011;18593;51.426;7.030;2023-07-31T13:28:01;7.60;;;3.50;;
32080;SDS011;18593;51.426;7.030;2023-07-31T13:30:29;5.75;;;3.35;;
32080;SDS011;18593;51.426;7.030;2023-07-31T13:32:56;7.88;;;4.38;;
32080;SDS011;18593;51.426;7.030;2023-07-31T13:35:23;7.32;;;3.47;;
32080;SDS011;18593;51.426;7.030;2023-07-31T13:37:50;8.02;;;3.50;;
32080;SDS011;18593;51.426;7.030;2023-07-31T13:40:19;9.43;;;4.28;;
32080;SDS011;18593;51.426;7.030;2023-07-31T13:42:47;6.85;;;3.70;;
32080;SDS011;18593;51.426;7.030;2023-07-31T13:45:14;7.60;;;4.00;;
32080;SDS011;18593;51.426;7.030;2023-07-31T13:47:41;8.13;;;4.22;;
32080;SDS011;18593;51.426;7.030;2023-07-31T13:50:09;8.73;;;4.60;;
32080;SDS011;18593;51.426;7.030;2023-07-31T13:52:37;7.80;;;3.90;;
32080;SDS011;18593;51.426;7.030;2023-07-31T13:55:05;7.65;;;4.43;;
32080;SDS011;18593;51.426;7.030;2023-07-31T13:57:35;10.93;;;4.88;;
32080;SDS011;18593;51.426;7.030;2023-07-31T14:00:02;6.15;;;3.92;;
32080;SDS011;18593;51.426;7.030;2023-07-31T14:02:32;7.25;;;3.65;;
32080;SDS011;18593;51.426;7.030;2023-07-31T14:04:59;9.10;;;4.45;;
32080;SDS011;18593;51.426;7.030;2023-07-31T14:07:26;8.02;;;4.32;;
32080;SDS011;18593;51.426;7.030;2023-07-31T14:09:53;8.55;;;4.70;;
32080;SDS011;18593;51.426;7.030;2023-07-31T14:12:21;12.50;;;4.60;;
32080;SDS011;18593;51.426;7.030;2023-07-31T14:14:50;10.45;;;4.93;;
32080;SDS011;18593;51.426;7.030;2023-07-31T14:17:17;9.95;;;4.65;;
32080;SDS011;18593;51.426;7.030;2023-07-31T14:19:45;7.40;;;4.50;;
32080;SDS011;18593;51.426;7.030;2023-07-31T14:22:12;12.35;;;4.68;;
32080;SDS011;18593;51.426;7.030;2023-07-31T14:24:39;11.00;;;4.78;;
32080;SDS011;18593;51.426;7.030;2023-07-31T14:27:07;11.93;;;4.93;;
32080;SDS011;18593;51.426;7.030;2023-07-31T14:29:34;10.07;;;5.20;;
32080;SDS011;18593;51.426;7.030;2023-07-31T14:32:04;11.13;;;5.80;;
32080;SDS011;18593;51.426;7.030;2023-07-31T14:34:33;10.18;;;5.18;;
32080;SDS011;18593;51.426;7.030;2023-07-31T14:37:00;8.57;;;4.50;;
32080;SDS011;18593;51.426;7.030;2023-07-31T14:39:27;10.63;;;4.47;;
32080;SDS011;18593;51.426;7.030;2023-07-31T14:41:54;7.50;;;4.53;;
32080;SDS011;18593;51.426;7.030;2023-07-31T14:44:21;10.45;;;4.88;;
32080;SDS011;18593;51.426;7.030;2023-07-31T14:46:49;9.25;;;4.50;;
32080;SDS011;18593;51.426;7.030;2023-07-31T14:49:18;7.97;;;4.35;;
32080;SDS011;18593;51.426;7.030;2023-07-31T14:51:45;10.45;;;4.80;;
32080;SDS011;18593;51.426;7.030;2023-07-31T14:54:13;9.20;;;4.50;;
32080;SDS011;18593;51.426;7.030;2023-07-31T14:56:40;8.98;;;4.70;;
32080;SDS011;18593;51.426;7.030;2023-07-31T14:59:07;9.77;;;5.38;;
32080;SDS011;18593;51.426;7.030;2023-07-31T15:01:35;9.00;;;4.88;;